Time;durP1;ratioP1;P1;durP2;ratioP2;P2;SDS_P1;SDS_P2;PMS_P1;PMS_P2;Temp;Humidity;BMP_temperature;BMP_pressure;BME280_temperature;BME280_humidity;BME280_pressure;Samples;Min_cycle;Max_cycle;Signal;HPM_P1;HPM_P2
2022/06/15 00:01:28;;;;;;;5.22;3.03;;;17.60;82.80;;;;;;4950918;28;20112;-77
2022/06/15 00:03:55;;;;;;;4.88;3.00;;;17.60;83.20;;;;;;4953918;28;20557;-77
2022/06/15 00:06:21;;;;;;;5.15;2.90;;;17.60;83.10;;;;;;4950141;28;20389;-77
2022/06/15 00:08:52;;;;;;;7.60;2.80;;;17.60;82.80;;;;;;4957070;28;20023;-77
2022/06/15 00:11:22;;;;;;;5.43;2.70;;;17.60;83.10;;;;;;4951725;28;20054;-77
2022/06/15 00:13:49;;;;;;;3.53;2.63;;;17.60;83.40;;;;;;4952228;28;20034;-77
2022/06/15 00:16:15;;;;;;;4.95;2.70;;;17.50;83.80;;;;;;4951501;28;20039;-77
2022/06/15 00:18:44;;;;;;;5.25;2.67;;;17.50;83.80;;;;;;4952898;28;20065;-77
2022/06/15 00:21:11;;;;;;;5.35;2.95;;;17.50;84.20;;;;;;4952256;28;20027;-76
2022/06/15 00:23:36;;;;;;;7.32;3.20;;;17.40;84.40;;;;;;4950071;28;20059;-77
2022/06/15 00:26:04;;;;;;;5.47;2.92;;;17.40;84.60;;;;;;4950059;28;20069;-76
2022/06/15 00:28:30;;;;;;;7.35;3.25;;;17.30;84.80;;;;;;4966920;28;20077;-77
2022/06/15 00:30:55;;;;;;;6.38;3.50;;;17.30;85.10;;;;;;4944198;28;20047;-76
2022/06/15 00:33:22;;;;;;;4.55;2.88;;;17.20;85.40;;;;;;4945554;28;20027;-76
2022/06/15 00:35:57;;;;;;;6.40;3.13;;;17.10;85.70;;;;;;4941697;28;20035;-76
2022/06/15 00:38:34;;;;;;;4.40;2.70;;;17.10;86.30;;;;;;4943092;28;20389;-77
2022/06/15 00:41:02;;;;;;;6.13;3.00;;;17.00;86.60;;;;;;4943702;28;20142;-77
2022/06/15 00:43:35;;;;;;;6.03;2.83;;;16.90;87.30;;;;;;4961576;28;20029;-77
2022/06/15 00:46:02;;;;;;;7.78;3.42;;;16.90;87.50;;;;;;4957100;28;20445;-77
2022/06/15 00:48:28;;;;;;;7.72;3.40;;;16.80;87.60;;;;;;4948438;28;20321;-77
2022/06/15 00:50:53;;;;;;;5.93;3.75;;;16.80;87.90;;;;;;4949366;28;20026;-77
2022/06/15 00:53:22;;;;;;;6.80;2.92;;;16.70;87.80;;;;;;4948624;28;20028;-76
2022/06/15 00:55:48;;;;;;;7.72;3.28;;;16.70;87.70;;;;;;4951134;28;20133;-77
2022/06/15 00:58:15;;;;;;;6.03;3.08;;;16.70;87.40;;;;;;4952957;28;20533;-77
2022/06/15 01:00:41;;;;;;;6.40;2.90;;;16.70;87.10;;;;;;4949955;28;21860;-77
2022/06/15 01:03:11;;;;;;;5.82;2.85;;;16.80;86.70;;;;;;4951948;28;20039;-76
2022/06/15 01:06:03;;;;;;;7.65;3.03;;;16.70;86.10;;;;;;4952544;28;20031;-77
2022/06/15 01:08:38;;;;;;;4.53;2.90;;;16.80;87.90;;;;;;4951804;28;20070;-77
2022/06/15 01:11:10;;;;;;;7.88;3.33;;;16.80;88.40;;;;;;4942931;28;20117;-75
2022/06/15 01:13:38;;;;;;;7.38;3.40;;;16.70;88.90;;;;;;4949620;28;20412;-75
2022/06/15 01:16:37;;;;;;;8.45;3.47;;;16.70;89.10;;;;;;4949036;28;20042;-75
2022/06/15 01:19:17;;;;;;;4.32;2.60;;;16.70;89.30;;;;;;4949489;28;20046;-75
2022/06/15 01:22:08;;;;;;;7.43;2.70;;;16.70;89.10;;;;;;4951843;28;20040;-75
2022/06/15 01:24:48;;;;;;;6.57;3.42;;;16.60;89.30;;;;;;4946426;28;20109;-75
2022/06/15 01:27:25;;;;;;;5.88;3.08;;;16.50;89.90;;;;;;4952119;28;20029;-76
2022/06/15 01:30:06;;;;;;;6.78;3.03;;;16.40;90.20;;;;;;4946084;28;20034;-76
2022/06/15 01:32:45;;;;;;;6.13;3.67;;;16.40;90.30;;;;;;4949811;28;20062;-77
2022/06/15 01:38:30;;;;;;;8.57;3.50;;;16.40;90.70;;;;;;5061090;28;20195;-77
2022/06/15 01:41:17;;;;;;;8.63;3.47;;;16.40;90.40;;;;;;5044176;28;20025;-76
2022/06/15 01:43:56;;;;;;;7.13;3.33;;;16.40;90.50;;;;;;5040410;28;20041;-76
2022/06/15 01:46:22;;;;;;;7.40;3.20;;;16.30;90.90;;;;;;5028176;28;20060;-76
2022/06/15 01:48:51;;;;;;;5.68;3.17;;;16.20;90.70;;;;;;5025824;28;20044;-76
2022/06/15 01:51:22;;;;;;;4.85;2.90;;;16.20;90.80;;;;;;5027255;28;20406;-76
2022/06/15 01:54:11;;;;;;;5.63;2.97;;;16.20;90.80;;;;;;5030317;28;20491;-77
2022/06/15 01:56:44;;;;;;;4.30;2.58;;;16.20;90.80;;;;;;5041758;28;20080;-77
2022/06/15 01:59:31;;;;;;;3.10;2.53;;;16.20;90.70;;;;;;5027049;28;20160;-77
2022/06/15 02:02:38;;;;;;;5.55;2.90;;;16.20;90.50;;;;;;5037428;28;20025;-75
2022/06/15 02:05:21;;;;;;;4.97;2.60;;;16.20;90.10;;;;;;5028001;28;20037;-75
2022/06/15 02:07:53;;;;;;;6.13;3.10;;;16.20;90.20;;;;;;5023993;28;20026;-76
2022/06/15 02:10:44;;;;;;;7.05;3.40;;;16.20;90.00;;;;;;5026668;28;20056;-76
2022/06/15 02:13:29;;;;;;;5.03;2.75;;;16.30;89.30;;;;;;5022678;28;20041;-75
2022/06/15 02:16:24;;;;;;;4.65;2.38;;;16.30;89.10;;;;;;5025451;28;20088;-75
2022/06/15 02:18:51;;;;;;;7.68;3.10;;;16.30;88.90;;;;;;5014756;28;20053;-75
2022/06/15 02:21:19;;;;;;;4.35;2.55;;;16.40;89.00;;;;;;5025000;28;20033;-76
2022/06/15 02:23:47;;;;;;;5.65;2.47;;;16.40;89.10;;;;;;5025208;28;20104;-76
2022/06/15 02:26:16;;;;;;;7.65;2.88;;;16.40;89.10;;;;;;5024932;28;20021;-75
2022/06/15 02:28:47;;;;;;;7.18;2.70;;;16.40;89.30;;;;;;5028114;28;20039;-76
2022/06/15 02:31:13;;;;;;;4.40;2.17;;;16.30;89.70;;;;;;5034892;28;20029;-75
2022/06/15 02:33:53;;;;;;;5.65;3.75;;;16.30;89.80;;;;;;5026636;28;20510;-75
2022/06/15 02:36:19;;;;;;;8.85;3.95;;;16.30;90.60;;;;;;5024487;28;20025;-75
2022/06/15 02:38:49;;;;;;;5.38;3.92;;;16.30;91.30;;;;;;5028086;28;20160;-76
2022/06/15 02:41:18;;;;;;;8.18;4.20;;;16.20;91.90;;;;;;5026578;28;20014;-76
2022/06/15 02:43:45;;;;;;;10.38;5.18;;;16.10;92.30;;;;;;5026758;28;20099;-75
2022/06/15 02:46:14;;;;;;;7.20;4.28;;;16.10;92.70;;;;;;5025819;28;20029;-76
2022/06/15 02:48:40;;;;;;;8.75;4.20;;;16.00;93.10;;;;;;5011526;28;20125;-75
2022/06/15 02:51:37;;;;;;;6.43;4.18;;;15.90;93.40;;;;;;5011469;28;20033;-75
2022/06/15 02:54:26;;;;;;;6.80;4.53;;;15.80;93.90;;;;;;5030875;28;20033;-75
2022/06/15 02:56:52;;;;;;;7.13;4.60;;;15.70;94.20;;;;;;5009135;28;20703;-75
2022/06/15 02:59:18;;;;;;;9.90;4.45;;;15.60;94.60;;;;;;5020548;28;20030;-75
2022/06/15 03:01:44;;;;;;;7.30;4.50;;;15.50;94.90;;;;;;5014161;28;21140;-76
2022/06/15 03:04:09;;;;;;;6.68;4.47;;;15.50;95.40;;;;;;5011465;28;20068;-75
2022/06/15 03:06:35;;;;;;;10.05;5.30;;;15.40;96.00;;;;;;5011055;28;20113;-75
2022/06/15 03:09:01;;;;;;;9.00;4.68;;;15.40;96.30;;;;;;5011531;28;20033;-75
2022/06/15 03:11:27;;;;;;;8.63;4.80;;;15.30;96.80;;;;;;5009748;28;20026;-75
2022/06/15 03:13:54;;;;;;;13.00;5.80;;;15.20;97.20;;;;;;5007708;28;20026;-76
2022/06/15 03:16:20;;;;;;;7.07;4.95;;;15.20;97.90;;;;;;5014086;28;20033;-76
2022/06/15 03:18:46;;;;;;;7.15;5.20;;;15.10;98.70;;;;;;5011313;28;20030;-74
2022/06/15 03:21:12;;;;;;;11.65;5.47;;;15.10;98.80;;;;;;5016421;28;20037;-76
2022/06/15 03:23:38;;;;;;;12.07;5.00;;;15.10;99.30;;;;;;5011926;28;20105;-76
2022/06/15 03:26:04;;;;;;;8.82;4.70;;;15.00;99.70;;;;;;5010417;28;20173;-74
2022/06/15 03:28:30;;;;;;;6.75;4.68;;;15.00;99.90;;;;;;5012690;28;20022;-76
2022/06/15 03:30:56;;;;;;;10.55;4.68;;;14.90;99.90;;;;;;5013795;28;20037;-75
2022/06/15 03:33:22;;;;;;;11.00;5.10;;;14.90;99.90;;;;;;5010165;28;20491;-77
2022/06/15 03:35:48;;;;;;;13.23;5.03;;;14.80;99.90;;;;;;5014291;28;20029;-77
2022/06/15 03:38:14;;;;;;;9.65;4.63;;;14.80;99.90;;;;;;5026386;28;20028;-77
2022/06/15 03:40:43;;;;;;;9.43;5.65;;;14.80;99.90;;;;;;5012042;28;20196;-77
2022/06/15 03:43:10;;;;;;;7.85;5.47;;;14.80;99.90;;;;;;5013562;28;20022;-76
2022/06/15 03:45:36;;;;;;;9.68;6.50;;;14.70;99.90;;;;;;5006427;28;20029;-76
2022/06/15 03:48:03;;;;;;;10.82;6.03;;;14.70;99.90;;;;;;5026391;28;20026;-76
2022/06/15 03:50:31;;;;;;;13.65;5.70;;;14.60;99.90;;;;;;5011869;28;20026;-76
2022/06/15 03:52:58;;;;;;;7.70;5.57;;;14.60;99.90;;;;;;5027198;28;20034;-75
2022/06/15 03:55:23;;;;;;;7.90;4.97;;;14.60;99.90;;;;;;5015480;28;20547;-76
2022/06/15 03:57:49;;;;;;;8.57;5.55;;;14.50;99.90;;;;;;5011707;28;20118;-76
2022/06/15 04:00:17;;;;;;;9.77;5.22;;;14.50;99.90;;;;;;5007736;28;20510;-76
2022/06/15 04:02:42;;;;;;;9.77;5.78;;;14.50;99.90;;;;;;5008247;28;20450;-76
2022/06/15 04:05:14;;;;;;;9.85;5.18;;;14.60;99.90;;;;;;5014483;28;20022;-76
2022/06/15 04:10:24;;;;;;;;;;;14.60;99.90;;;;;;5007351;28;20051;-76
2022/06/15 04:12:49;;;;;;;11.55;5.60;;;14.60;99.90;;;;;;5010176;28;19999;-77
2022/06/15 04:15:16;;;;;;;10.50;5.82;;;14.60;99.90;;;;;;5007107;28;20049;-77
2022/06/15 04:17:44;;;;;;;7.32;5.85;;;14.70;99.90;;;;;;5012384;28;20026;-75
2022/06/15 04:20:31;;;;;;;12.50;6.20;;;14.80;99.90;;;;;;5008640;28;20356;-75
2022/06/15 04:22:58;;;;;;;11.65;5.63;;;14.90;99.90;;;;;;5008734;28;20483;-75
2022/06/15 04:25:23;;;;;;;8.55;5.63;;;15.10;99.90;;;;;;5007120;28;20156;-76
2022/06/15 04:27:49;;;;;;;7.50;4.55;;;15.20;99.90;;;;;;5012738;28;20101;-76
2022/06/15 04:30:15;;;;;;;9.75;5.05;;;15.50;99.90;;;;;;5012588;28;20117;-76
2022/06/15 04:32:41;;;;;;;7.43;4.68;;;15.80;99.90;;;;;;5014754;28;20077;-77
2022/06/15 04:35:06;;;;;;;10.93;4.90;;;16.50;99.90;;;;;;5030891;28;20048;-76
2022/06/15 04:37:32;;;;;;;6.38;4.63;;;17.00;99.90;;;;;;5012019;28;20390;-76
2022/06/15 04:39:58;;;;;;;8.48;4.60;;;17.10;99.80;;;;;;5005826;28;20034;-77
2022/06/15 04:42:23;;;;;;;6.93;4.28;;;17.20;99.00;;;;;;5008840;28;20394;-77
2022/06/15 04:44:49;;;;;;;8.95;4.20;;;17.10;98.20;;;;;;5010521;28;20594;-76
2022/06/15 04:47:15;;;;;;;9.50;4.65;;;17.20;97.90;;;;;;5013904;28;20101;-76
2022/06/15 04:49:40;;;;;;;10.48;4.28;;;17.30;97.80;;;;;;5024918;28;20410;-76
2022/06/15 04:52:06;;;;;;;15.63;4.57;;;17.30;97.50;;;;;;5007024;28;20479;-76
2022/06/15 04:54:32;;;;;;;9.35;4.38;;;17.30;97.40;;;;;;5009524;28;20021;-74
2022/06/15 04:56:57;;;;;;;7.97;3.70;;;17.40;97.10;;;;;;4997260;28;20040;-74
2022/06/15 04:59:23;;;;;;;9.43;3.90;;;17.50;96.90;;;;;;5006343;28;20189;-73
2022/06/15 05:01:49;;;;;;;6.70;3.75;;;17.60;96.70;;;;;;5000465;28;20030;-74
2022/06/15 05:04:14;;;;;;;5.90;3.53;;;17.80;96.20;;;;;;5004376;28;20026;-73
2022/06/15 05:06:41;;;;;;;8.57;3.75;;;17.90;95.70;;;;;;5009812;28;20033;-74
2022/06/15 05:09:10;;;;;;;9.65;3.58;;;18.00;95.50;;;;;;5008110;28;20049;-73
2022/06/15 05:11:36;;;;;;;5.80;3.65;;;18.20;95.40;;;;;;5010131;28;20034;-74
2022/06/15 05:14:03;;;;;;;8.18;4.72;;;18.30;95.20;;;;;;5008446;28;20041;-73
2022/06/15 05:16:29;;;;;;;6.85;4.55;;;18.40;95.20;;;;;;5010221;28;20464;-74
2022/06/15 05:18:55;;;;;;;13.48;5.00;;;18.50;95.20;;;;;;5028165;28;20121;-75
2022/06/15 05:21:21;;;;;;;10.63;6.25;;;18.70;95.20;;;;;;5013631;28;20029;-74
2022/06/15 05:23:46;;;;;;;10.20;6.07;;;18.70;95.20;;;;;;5007454;28;20029;-76
2022/06/15 05:26:13;;;;;;;13.10;5.97;;;18.80;95.20;;;;;;5006506;28;20038;-75
2022/06/15 05:28:41;;;;;;;12.20;5.43;;;18.80;95.20;;;;;;5008479;28;20048;-75
2022/06/15 05:31:20;;;;;;;10.55;5.10;;;18.90;95.00;;;;;;5010974;28;20018;-75
2022/06/15 05:33:47;;;;;;;9.73;5.10;;;18.90;94.80;;;;;;5008723;28;20033;-75
2022/06/15 05:36:17;;;;;;;7.30;4.57;;;19.00;94.70;;;;;;5011392;28;20025;-69
2022/06/15 05:38:44;;;;;;;7.75;5.28;;;19.00;94.30;;;;;;5012263;28;20096;-70
2022/06/15 05:41:10;;;;;;;8.23;4.53;;;18.90;94.40;;;;;;5018211;28;20356;-70
2022/06/15 05:43:40;;;;;;;10.07;5.50;;;19.00;94.50;;;;;;5011763;28;20026;-70
2022/06/15 05:46:23;;;;;;;9.48;5.05;;;19.00;94.60;;;;;;5012277;28;20030;-69
2022/06/15 05:48:49;;;;;;;8.77;4.20;;;19.10;94.50;;;;;;5012477;28;20097;-69
2022/06/15 05:51:14;;;;;;;7.32;4.50;;;19.10;94.40;;;;;;5012117;28;20118;-69
2022/06/15 05:53:40;;;;;;;8.90;5.07;;;19.30;94.20;;;;;;5009391;28;20029;-72
2022/06/15 05:56:06;;;;;;;7.05;4.38;;;19.30;93.90;;;;;;5012641;28;20116;-78
2022/06/15 05:58:32;;;;;;;12.57;5.13;;;19.50;93.60;;;;;;5013693;28;20026;-77
2022/06/15 06:01:05;;;;;;;8.40;4.38;;;19.60;93.60;;;;;;5013652;28;20053;-77
2022/06/15 06:03:31;;;;;;;8.57;4.68;;;19.80;93.40;;;;;;5027961;28;20109;-77
2022/06/15 06:05:57;;;;;;;11.13;5.00;;;19.80;93.20;;;;;;5013319;28;20490;-77
2022/06/15 06:08:22;;;;;;;6.90;4.35;;;20.00;93.00;;;;;;5013704;28;20105;-77
2022/06/15 06:10:48;;;;;;;6.28;4.18;;;20.00;92.60;;;;;;5011627;28;20076;-77
2022/06/15 06:13:13;;;;;;;9.10;4.82;;;20.10;92.50;;;;;;5012475;28;20022;-76
2022/06/15 06:15:39;;;;;;;7.55;4.22;;;20.30;92.40;;;;;;5017409;28;20522;-78
2022/06/15 06:18:05;;;;;;;7.40;4.80;;;20.40;92.10;;;;;;5006697;28;20494;-77
2022/06/15 06:20:30;;;;;;;9.25;4.82;;;20.40;92.00;;;;;;5006596;28;20031;-80
2022/06/15 06:22:56;;;;;;;6.47;4.20;;;20.40;92.00;;;;;;4993975;28;20031;-74
2022/06/15 06:25:21;;;;;;;9.35;5.07;;;20.60;91.90;;;;;;5015571;28;20034;-75
2022/06/15 06:27:47;;;;;;;8.95;5.63;;;20.70;91.70;;;;;;5034624;28;20029;-75
2022/06/15 06:30:14;;;;;;;9.00;5.30;;;20.70;91.50;;;;;;5035728;28;20105;-75
2022/06/15 06:32:39;;;;;;;7.47;5.03;;;20.80;91.50;;;;;;5015887;28;20026;-75
2022/06/15 06:35:07;;;;;;;7.32;4.97;;;20.80;91.50;;;;;;5015886;28;20041;-75
2022/06/15 06:37:35;;;;;;;11.85;5.68;;;20.90;91.50;;;;;;5014660;28;20033;-76
2022/06/15 06:40:00;;;;;;;7.85;4.38;;;21.00;91.30;;;;;;5015410;28;20563;-74
2022/06/15 06:42:26;;;;;;;7.40;4.78;;;21.00;91.40;;;;;;5015920;28;20030;-75
2022/06/15 06:44:52;;;;;;;11.68;5.20;;;21.10;91.30;;;;;;5012782;28;20025;-75
2022/06/15 06:47:17;;;;;;;5.88;4.22;;;21.10;90.90;;;;;;5014389;28;20391;-75
2022/06/15 06:49:43;;;;;;;8.80;4.30;;;21.20;90.90;;;;;;5014887;28;20544;-74
2022/06/15 06:52:10;;;;;;;9.15;4.38;;;21.20;90.80;;;;;;5018238;28;20038;-73
2022/06/15 06:54:36;;;;;;;8.07;4.22;;;21.20;90.80;;;;;;5016593;28;20509;-76
2022/06/15 06:57:01;;;;;;;8.15;4.00;;;21.30;90.70;;;;;;5015512;28;20030;-76
2022/06/15 06:59:27;;;;;;;9.02;4.65;;;21.30;90.50;;;;;;5016232;28;20036;-76
2022/06/15 07:01:53;;;;;;;10.45;3.80;;;21.50;90.50;;;;;;5012719;28;20037;-76
2022/06/15 07:04:19;;;;;;;8.48;3.90;;;21.50;90.50;;;;;;5014677;28;20411;-76
2022/06/15 07:06:46;;;;;;;7.45;3.72;;;21.60;90.40;;;;;;4912541;28;20596;-75
2022/06/15 07:09:13;;;;;;;10.52;4.68;;;21.60;90.30;;;;;;4976886;28;20042;-74
2022/06/15 07:11:42;;;;;;;11.35;5.32;;;21.60;90.40;;;;;;4977016;28;20027;-75
2022/06/15 07:14:07;;;;;;;7.70;5.38;;;21.50;90.50;;;;;;4978197;28;20102;-75
2022/06/15 07:16:33;;;;;;;6.18;4.30;;;21.40;90.60;;;;;;4978682;28;20102;-74
2022/06/15 07:18:59;;;;;;;7.18;4.82;;;21.40;90.60;;;;;;4984637;28;20022;-74
2022/06/15 07:21:27;;;;;;;11.15;4.00;;;21.30;90.70;;;;;;4978029;28;20023;-74
2022/06/15 07:23:56;;;;;;;9.38;4.60;;;21.30;90.80;;;;;;4979867;28;20102;-75
2022/06/15 07:26:29;;;;;;;4.60;3.80;;;21.40;90.90;;;;;;4973484;28;20022;-74
2022/06/15 07:28:54;;;;;;;9.17;3.90;;;21.40;90.90;;;;;;4978518;28;20030;-75
2022/06/15 07:31:33;;;;;;;8.50;3.85;;;21.40;90.90;;;;;;4977790;28;20355;-74
2022/06/15 07:33:59;;;;;;;12.05;4.40;;;21.40;91.00;;;;;;4984291;28;20042;-75
2022/06/15 07:36:25;;;;;;;7.97;3.97;;;21.50;91.00;;;;;;4977788;28;20026;-74
2022/06/15 07:38:53;;;;;;;8.80;3.65;;;21.50;91.00;;;;;;4985758;28;20061;-74
2022/06/15 07:41:18;;;;;;;12.27;4.28;;;21.60;91.00;;;;;;4977922;28;20710;-74
2022/06/15 07:43:44;;;;;;;9.93;3.88;;;21.60;90.80;;;;;;4976219;28;20058;-74
2022/06/15 07:46:10;;;;;;;6.05;3.78;;;21.70;90.60;;;;;;4974996;28;20100;-74
2022/06/15 07:51:29;;;;;;;7.43;4.15;;;21.80;90.50;;;;;;4976333;28;20558;-76
2022/06/15 07:53:56;;;;;;;6.18;4.00;;;21.80;90.30;;;;;;4975531;28;20057;-74
2022/06/15 07:56:22;;;;;;;4.47;3.58;;;21.80;90.10;;;;;;4974672;28;20031;-74
2022/06/15 07:58:48;;;;;;;7.53;3.70;;;21.90;90.20;;;;;;4983760;28;20022;-75
2022/06/15 08:01:13;;;;;;;4.13;3.30;;;21.90;90.30;;;;;;4976001;28;20480;-74
2022/06/15 08:03:39;;;;;;;5.25;3.47;;;22.00;90.10;;;;;;4978252;28;20134;-75
2022/06/15 08:06:05;;;;;;;7.10;3.80;;;22.10;90.20;;;;;;4974251;28;20186;-74
2022/06/15 08:08:31;;;;;;;5.78;3.38;;;22.20;90.20;;;;;;4975377;28;20392;-74
2022/06/15 08:10:57;;;;;;;5.57;3.15;;;22.30;89.00;;;;;;4978614;28;20078;-74
2022/06/15 08:13:23;;;;;;;5.05;3.47;;;22.30;88.50;;;;;;4980204;28;20567;-74
2022/06/15 08:15:51;;;;;;;6.20;4.05;;;22.40;88.10;;;;;;4975199;28;20050;-74
2022/06/15 08:18:21;;;;;;;9.10;3.97;;;22.40;87.60;;;;;;4975621;28;20030;-75
2022/06/15 08:20:55;;;;;;;7.45;3.10;;;22.50;87.20;;;;;;4974469;28;20392;-75
2022/06/15 08:23:25;;;;;;;6.90;4.25;;;22.50;87.80;;;;;;4982694;28;20030;-74
2022/06/15 08:25:55;;;;;;;4.32;3.13;;;22.50;86.80;;;;;;4973658;28;20026;-75
2022/06/15 08:28:25;;;;;;;8.10;3.83;;;22.50;86.80;;;;;;4975458;28;20429;-74
2022/06/15 08:30:52;;;;;;;11.60;3.65;;;22.60;87.20;;;;;;4992867;28;20034;-75
2022/06/15 08:33:18;;;;;;;5.35;3.70;;;22.60;86.60;;;;;;4982234;28;20074;-75
2022/06/15 08:35:45;;;;;;;8.35;3.90;;;22.70;87.00;;;;;;4975495;28;20050;-75
2022/06/15 08:38:15;;;;;;;4.85;3.10;;;22.80;86.30;;;;;;4976000;28;20058;-75
2022/06/15 08:40:55;;;;;;;9.35;3.38;;;22.90;85.80;;;;;;4979748;28;20026;-74
2022/06/15 08:43:39;;;;;;;5.75;3.15;;;23.00;85.30;;;;;;4978974;28;20054;-75
2022/06/15 08:46:20;;;;;;;;;;;23.00;84.70;;;;;;4978246;28;20027;-75
2022/06/15 08:48:49;;;;;;;4.53;3.03;;;23.10;84.50;;;;;;4974762;28;19933;-75
2022/06/15 08:51:43;;;;;;;6.45;3.50;;;23.20;83.00;;;;;;4971679;28;20031;-75
2022/06/15 08:54:10;;;;;;;5.20;3.47;;;23.20;83.30;;;;;;4971550;28;20030;-74
2022/06/15 08:56:43;;;;;;;6.07;3.00;;;23.30;83.30;;;;;;4972839;28;20061;-74
2022/06/15 08:59:35;;;;;;;5.45;2.80;;;23.40;82.50;;;;;;4977635;28;20101;-74
2022/06/15 09:02:15;;;;;;;4.18;3.10;;;23.40;81.50;;;;;;4997577;28;20049;-74
2022/06/15 09:04:58;;;;;;;6.43;2.92;;;23.40;82.00;;;;;;4983948;28;20423;-74
2022/06/15 09:07:35;;;;;;;7.68;2.97;;;23.60;81.80;;;;;;4970747;28;20034;-76
2022/06/15 09:10:13;;;;;;;4.63;3.05;;;23.60;81.10;;;;;;4974363;28;20035;-75
2022/06/15 09:13:26;;;;;;;4.57;3.08;;;23.70;80.90;;;;;;4973939;28;20027;-75
2022/06/15 09:16:32;;;;;;;5.78;3.03;;;23.80;80.80;;;;;;4982303;28;20045;-74
2022/06/15 09:19:02;;;;;;;5.57;2.90;;;23.80;80.40;;;;;;4972813;28;20050;-74
2022/06/15 09:21:43;;;;;;;4.88;3.22;;;23.90;80.70;;;;;;4974227;28;20045;-75
2022/06/15 09:24:17;;;;;;;4.85;3.10;;;23.90;80.50;;;;;;4985483;28;20027;-75
2022/06/15 09:26:49;;;;;;;5.25;3.03;;;24.00;79.70;;;;;;4985087;28;20027;-75
2022/06/15 09:29:39;;;;;;;8.50;2.85;;;24.10;79.70;;;;;;4969616;28;20428;-75
2022/06/15 09:32:17;;;;;;;4.70;2.70;;;24.10;79.30;;;;;;4972603;28;20659;-74
2022/06/15 09:34:55;;;;;;;3.78;2.70;;;24.10;79.60;;;;;;4973370;28;20062;-75
2022/06/15 09:37:23;;;;;;;3.65;2.40;;;24.20;78.60;;;;;;4973818;28;20038;-75
2022/06/15 09:39:49;;;;;;;4.43;2.65;;;24.20;78.50;;;;;;4972288;28;20065;-74
2022/06/15 09:42:23;;;;;;;4.97;3.17;;;24.20;78.40;;;;;;4973894;28;20058;-75
2022/06/15 09:45:00;;;;;;;4.68;2.95;;;24.30;78.30;;;;;;4973726;28;20019;-74
2022/06/15 09:47:32;;;;;;;5.30;3.38;;;24.40;78.20;;;;;;4973725;28;20031;-74
2022/06/15 09:50:24;;;;;;;4.15;2.90;;;24.40;77.50;;;;;;4975220;28;20031;-74
2022/06/15 09:53:18;;;;;;;6.13;3.05;;;24.40;77.50;;;;;;4967278;28;20042;-74
2022/06/15 09:55:51;;;;;;;6.53;2.83;;;24.50;77.00;;;;;;4973148;28;20015;-75
2022/06/15 09:58:19;;;;;;;7.53;2.80;;;24.60;77.50;;;;;;4968672;28;20034;-75
2022/06/15 10:00:47;;;;;;;6.22;2.60;;;24.60;75.90;;;;;;4977424;28;20142;-75
2022/06/15 10:03:25;;;;;;;4.70;2.55;;;24.60;74.70;;;;;;4983609;28;20075;-75
2022/06/15 10:05:55;;;;;;;3.10;2.20;;;24.60;74.50;;;;;;4971473;28;20065;-75
2022/06/15 10:08:22;;;;;;;6.18;2.22;;;24.70;73.90;;;;;;4976980;28;20066;-76
2022/06/15 10:10:52;;;;;;;5.07;3.05;;;24.70;74.00;;;;;;4999754;28;20107;-75
2022/06/15 10:13:17;;;;;;;4.43;2.13;;;24.70;73.30;;;;;;4985554;28;20488;-74
2022/06/15 10:15:43;;;;;;;4.57;2.20;;;24.80;72.20;;;;;;4977448;28;20055;-73
2022/06/15 10:18:23;;;;;;;4.18;2.10;;;24.80;72.40;;;;;;4973715;28;20034;-74
2022/06/15 10:21:15;;;;;;;2.53;1.95;;;24.90;70.90;;;;;;4995279;28;20046;-75
2022/06/15 10:23:47;;;;;;;4.85;2.05;;;25.00;71.20;;;;;;4990655;28;20035;-74
2022/06/15 10:26:42;;;;;;;4.07;2.35;;;25.10;70.50;;;;;;4981309;28;20070;-74
2022/06/15 10:29:23;;;;;;;3.30;2.15;;;25.20;69.40;;;;;;4975620;28;20031;-75
2022/06/15 10:32:03;;;;;;;3.47;2.30;;;25.20;68.90;;;;;;5007596;28;20106;-75
2022/06/15 10:34:48;;;;;;;2.97;2.25;;;25.30;69.50;;;;;;4975772;28;20031;-74
2022/06/15 10:37:22;;;;;;;3.42;2.05;;;25.30;68.70;;;;;;4977147;28;20027;-74
2022/06/15 10:39:51;;;;;;;4.82;2.25;;;25.40;68.20;;;;;;4975454;28;20456;-74
2022/06/15 10:42:31;;;;;;;5.10;2.30;;;25.40;66.00;;;;;;4975645;28;20055;-76
2022/06/15 10:45:08;;;;;;;2.70;1.55;;;25.40;66.30;;;;;;4974882;28;20069;-74
2022/06/15 10:47:54;;;;;;;4.68;1.80;;;25.40;66.10;;;;;;4981568;28;20063;-75
2022/06/15 10:50:31;;;;;;;2.33;1.80;;;25.50;66.30;;;;;;4973432;28;20050;-75
2022/06/15 10:53:03;;;;;;;2.70;1.95;;;25.50;65.50;;;;;;4995267;28;20033;-76
2022/06/15 11:04:16;;;;;;;3.80;1.65;;;25.70;62.70;;;;;;4974645;28;20117;-75
2022/06/15 11:06:52;;;;;;;4.07;1.50;;;25.70;61.80;;;;;;4976120;28;20071;-76
2022/06/15 11:09:37;;;;;;;2.88;1.30;;;25.80;59.60;;;;;;4968148;28;20031;-76
2022/06/15 11:12:27;;;;;;;3.25;1.08;;;25.90;55.70;;;;;;4975191;28;20063;-76
2022/06/15 11:14:57;;;;;;;2.83;1.10;;;26.00;51.70;;;;;;4972484;28;20688;-75
2022/06/15 11:20:32;;;;;;;1.95;1.30;;;26.00;54.00;;;;;;4978359;28;20034;-76
2022/06/15 11:23:13;;;;;;;4.35;1.40;;;26.10;54.40;;;;;;4978210;28;20023;-75
2022/06/15 11:29:53;;;;;;;3.58;1.58;;;26.10;53.10;;;;;;4945085;28;20038;-82
2022/06/15 11:32:45;;;;;;;2.05;1.30;;;26.10;55.30;;;;;;4932358;28;20035;-81
2022/06/15 11:35:14;;;;;;;2.03;1.35;;;26.10;55.30;;;;;;4928359;29;20031;-82
2022/06/15 11:38:02;;;;;;;2.78;1.50;;;26.10;54.60;;;;;;4952445;28;20663;-82
2022/06/15 11:40:40;;;;;;;3.50;1.65;;;26.20;54.50;;;;;;4930352;29;20028;-81
2022/06/15 11:43:24;;;;;;;2.20;1.27;;;26.20;55.50;;;;;;4933198;29;20110;-83
2022/06/15 11:45:59;;;;;;;2.83;1.58;;;26.40;54.00;;;;;;4932926;29;20480;-82
2022/06/15 11:48:56;;;;;;;3.17;1.50;;;26.40;54.00;;;;;;4930839;29;20035;-82
2022/06/15 11:51:21;;;;;;;4.28;1.77;;;26.40;53.80;;;;;;4941512;28;20063;-82
2022/06/15 11:54:02;;;;;;;3.88;1.48;;;26.40;53.50;;;;;;4949558;28;20644;-82
2022/06/15 11:56:37;;;;;;;2.42;1.50;;;26.40;52.90;;;;;;4934296;29;20104;-82
2022/06/15 11:59:39;;;;;;;3.13;1.17;;;26.40;53.10;;;;;;4925824;29;20035;-83
2022/06/15 12:02:38;;;;;;;1.80;1.30;;;26.40;52.00;;;;;;4935059;28;20128;-83
2022/06/15 12:05:33;;;;;;;2.92;1.45;;;26.60;52.30;;;;;;4918192;28;20046;-82
2022/06/15 12:08:15;;;;;;;4.75;1.60;;;26.80;52.00;;;;;;4929538;29;20028;-81
2022/06/15 12:10:57;;;;;;;2.35;1.60;;;26.80;52.00;;;;;;4955121;28;20032;-82
2022/06/15 12:13:28;;;;;;;1.67;1.27;;;27.00;53.20;;;;;;4930434;29;20472;-82
2022/06/15 12:16:32;;;;;;;1.92;1.50;;;27.00;53.10;;;;;;4934048;29;20036;-82
2022/06/15 12:19:15;;;;;;;3.37;1.83;;;27.10;52.90;;;;;;4931038;28;20040;-82
2022/06/15 12:22:01;;;;;;;3.97;1.48;;;27.10;52.20;;;;;;4931648;29;20028;-82
2022/06/15 12:24:53;;;;;;;2.38;1.45;;;27.10;51.60;;;;;;4933926;29;20035;-82
2022/06/15 12:27:48;;;;;;;2.72;1.45;;;27.10;51.50;;;;;;4934270;29;20047;-81
2022/06/15 12:30:30;;;;;;;2.17;1.80;;;27.10;51.50;;;;;;4930804;29;20094;-82
2022/06/15 12:33:22;;;;;;;3.15;1.40;;;27.20;51.60;;;;;;4931520;29;20488;-81
2022/06/15 12:36:01;;;;;;;4.60;1.45;;;27.20;51.50;;;;;;4932631;28;20040;-81
2022/06/15 12:38:49;;;;;;;1.95;1.50;;;27.10;51.70;;;;;;4934272;29;20073;-82
2022/06/15 12:44:38;;;;;;;1.90;1.50;;;27.30;50.90;;;;;;4935260;29;20086;-81
2022/06/15 12:47:05;;;;;;;3.70;1.63;;;27.40;51.30;;;;;;4928919;29;20120;-81
2022/06/15 12:49:40;;;;;;;4.05;1.50;;;27.40;51.30;;;;;;4933273;29;20039;-81
2022/06/15 12:52:32;;;;;;;2.25;1.98;;;27.40;51.70;;;;;;4930230;29;20067;-81
2022/06/15 12:55:17;;;;;;;2.97;1.83;;;27.50;52.10;;;;;;4929429;29;20031;-82
2022/06/15 12:58:04;;;;;;;3.22;1.50;;;27.60;51.70;;;;;;4931648;29;20067;-82
2022/06/15 13:00:42;;;;;;;2.17;1.63;;;27.70;51.30;;;;;;4933385;29;20027;-82
2022/06/15 13:03:27;;;;;;;3.47;1.58;;;27.60;51.50;;;;;;4927501;29;20055;-82
2022/06/15 13:06:24;;;;;;;2.90;1.90;;;27.60;52.00;;;;;;4938090;29;20020;-82
2022/06/15 13:09:14;;;;;;;2.58;1.75;;;27.60;51.80;;;;;;4927496;29;20040;-82
2022/06/15 13:11:52;;;;;;;2.85;1.60;;;27.60;52.00;;;;;;4933633;29;20031;-83
2022/06/15 13:14:24;;;;;;;3.53;2.03;;;27.70;52.50;;;;;;4929020;29;20078;-83
2022/06/15 13:17:18;;;;;;;3.55;2.20;;;27.70;52.40;;;;;;4930598;29;20027;-83
2022/06/15 13:19:46;;;;;;;3.70;1.98;;;27.90;52.60;;;;;;4927217;29;20032;-82
2022/06/15 13:22:18;;;;;;;2.30;1.60;;;27.90;52.30;;;;;;4930382;29;20032;-82
2022/06/15 13:25:04;;;;;;;2.28;1.48;;;28.00;52.20;;;;;;4927769;29;20023;-82
2022/06/15 13:27:29;;;;;;;6.28;1.98;;;28.00;52.00;;;;;;4929518;29;20096;-81
2022/06/15 13:30:26;;;;;;;4.38;1.73;;;28.00;52.10;;;;;;4932326;29;20117;-82
2022/06/15 13:33:04;;;;;;;3.47;1.92;;;28.00;51.70;;;;;;4925187;29;20464;-82
2022/06/15 13:35:32;;;;;;;4.68;1.92;;;28.00;51.70;;;;;;4926703;29;20114;-81
2022/06/15 13:37:59;;;;;;;4.05;1.80;;;28.00;51.90;;;;;;4927996;29;20032;-81
2022/06/15 13:40:54;;;;;;;3.03;1.80;;;27.90;52.10;;;;;;4929984;28;20405;-82
2022/06/15 13:43:21;;;;;;;2.88;1.90;;;27.80;52.40;;;;;;4943524;28;20036;-81